Time;durP1;ratioP1;P1;durP2;ratioP2;P2;SDS_P1;SDS_P2;PMS_P1;PMS_P2;Temp;Humidity;BMP_temperature;BMP_pressure;BME280_temperature;BME280_humidity;BME280_pressure;Samples;Min_cycle;Max_cycle;Signal;HPM_P1;HPM_P2
2022/02/22 00:02:16;;;;;;;19.93;3.10;;;5.10;99.90;;;;;;4997332;28;20182;-87
2022/02/22 00:04:43;;;;;;;19.70;3.17;;;5.20;99.90;;;;;;4997268;28;20271;-87
2022/02/22 00:07:11;;;;;;;18.87;3.07;;;5.30;99.90;;;;;;5014177;28;20249;-87
2022/02/22 00:09:36;;;;;;;19.40;2.90;;;5.30;99.90;;;;;;5014423;28;20175;-87
2022/02/22 00:12:03;;;;;;;18.83;2.37;;;5.30;99.90;;;;;;4996881;28;20640;-87
2022/02/22 00:14:28;;;;;;;13.60;3.20;;;5.40;99.90;;;;;;5014706;28;20626;-87
2022/02/22 00:16:57;;;;;;;20.97;2.83;;;5.40;99.90;;;;;;5013381;28;20206;-87
2022/02/22 00:19:24;;;;;;;9.80;2.23;;;5.30;99.90;;;;;;4997032;28;20238;-87
2022/02/22 00:21:51;;;;;;;10.53;2.23;;;5.30;99.90;;;;;;5017597;28;20254;-87
2022/02/22 00:24:17;;;;;;;12.43;2.10;;;5.30;99.90;;;;;;5005841;28;20281;-86
2022/02/22 00:26:43;;;;;;;13.50;2.47;;;5.30;99.90;;;;;;5020103;28;20190;-87
2022/02/22 00:29:09;;;;;;;16.07;2.83;;;5.40;99.90;;;;;;5037849;28;20269;-87
2022/02/22 00:31:35;;;;;;;10.60;2.17;;;5.40;99.90;;;;;;5037578;28;20574;-87
2022/02/22 00:34:02;;;;;;;12.83;2.23;;;5.40;99.90;;;;;;5037738;28;20174;-88
2022/02/22 00:36:28;;;;;;;15.23;2.70;;;5.30;99.90;;;;;;5037708;28;20179;-87
2022/02/22 00:38:53;;;;;;;9.70;1.77;;;5.30;99.90;;;;;;5037410;28;20262;-87
2022/02/22 00:41:19;;;;;;;9.00;1.77;;;5.30;99.90;;;;;;5019844;28;20221;-88
2022/02/22 00:43:45;;;;;;;11.03;2.37;;;5.30;99.90;;;;;;5019852;28;20182;-87
2022/02/22 00:46:11;;;;;;;9.97;1.80;;;5.30;99.90;;;;;;5019775;28;20197;-88
2022/02/22 00:48:37;;;;;;;17.10;2.30;;;5.30;99.90;;;;;;5019860;28;20178;-87
2022/02/22 00:51:02;;;;;;;13.17;2.63;;;5.30;99.90;;;;;;5037216;28;20523;-88
2022/02/22 00:53:28;;;;;;;13.13;2.13;;;5.20;99.90;;;;;;5019550;28;20269;-88
2022/02/22 00:55:54;;;;;;;14.17;2.60;;;5.10;99.90;;;;;;5019842;28;20671;-86
2022/02/22 00:58:19;;;;;;;15.73;2.63;;;5.10;99.90;;;;;;5037544;28;20201;-87
2022/02/22 01:00:45;;;;;;;13.77;2.70;;;5.10;99.90;;;;;;5019033;28;20636;-87
2022/02/22 01:03:11;;;;;;;16.87;2.73;;;5.10;99.90;;;;;;5019622;28;20583;-88
2022/02/22 01:05:37;;;;;;;16.67;3.10;;;5.10;99.90;;;;;;5019441;28;20183;-87
2022/02/22 01:08:03;;;;;;;11.30;1.57;;;5.00;99.90;;;;;;5019220;28;20190;-87
2022/02/22 01:10:29;;;;;;;10.40;2.10;;;5.00;99.90;;;;;;5019483;28;20198;-87
2022/02/22 01:12:55;;;;;;;12.00;2.83;;;5.10;99.90;;;;;;5037159;28;20178;-87
2022/02/22 01:15:21;;;;;;;18.37;2.67;;;5.00;99.90;;;;;;5019397;28;20232;-87
2022/02/22 01:17:47;;;;;;;15.17;2.50;;;5.00;99.90;;;;;;5019201;28;20273;-87
2022/02/22 01:20:13;;;;;;;18.13;3.83;;;5.10;99.90;;;;;;5019115;28;20260;-87
2022/02/22 01:25:14;;;;;;;22.87;3.53;;;5.10;99.90;;;;;;5364454;23;20297;-92
2022/02/22 01:27:39;;;;;;;22.60;3.77;;;5.20;99.90;;;;;;5037055;28;20195;-94
2022/02/22 01:30:07;;;;;;;27.77;4.27;;;5.10;99.90;;;;;;5052604;28;20277;-92
2022/02/22 01:32:33;;;;;;;27.07;3.57;;;5.20;99.90;;;;;;5057004;28;20174;-94
2022/02/22 01:34:59;;;;;;;24.83;4.43;;;5.20;99.90;;;;;;5056979;28;20180;-95
2022/02/22 01:37:25;;;;;;;23.60;4.00;;;5.10;99.90;;;;;;5039039;28;20181;-92
2022/02/22 01:39:51;;;;;;;24.23;4.57;;;5.10;99.90;;;;;;5039198;28;20182;-93
2022/02/22 01:42:17;;;;;;;29.03;4.30;;;5.00;99.90;;;;;;5004763;28;20194;-93
2022/02/22 01:44:46;;;;;;;32.20;4.90;;;5.00;99.90;;;;;;5002273;28;20187;-94
2022/02/22 01:47:16;;;;;;;34.70;4.87;;;4.90;99.90;;;;;;5009929;28;20270;-90
2022/02/22 01:49:45;;;;;;;23.20;4.20;;;4.90;99.90;;;;;;5016013;28;20266;-93
2022/02/22 01:52:11;;;;;;;26.83;4.53;;;5.00;99.90;;;;;;5014127;28;20176;-91
2022/02/22 01:54:37;;;;;;;32.13;4.90;;;5.00;99.90;;;;;;5002220;28;20270;-91
2022/02/22 01:57:03;;;;;;;31.67;4.40;;;4.90;99.90;;;;;;5001955;28;20207;-91
2022/02/22 01:59:29;;;;;;;23.23;4.13;;;4.90;99.90;;;;;;5021220;28;20181;-94
2022/02/22 02:01:55;;;;;;;34.50;5.13;;;4.90;99.90;;;;;;5038920;28;20688;-93
2022/02/22 02:04:21;;;;;;;23.57;3.70;;;4.90;99.90;;;;;;5038456;28;20178;-94
2022/02/22 02:06:47;;;;;;;24.93;3.90;;;4.80;99.90;;;;;;5038660;28;20239;-91
2022/02/22 02:09:13;;;;;;;19.63;4.47;;;4.80;99.90;;;;;;5038376;28;20185;-92
2022/02/22 02:11:46;;;;;;;25.13;4.47;;;4.90;99.90;;;;;;5038754;28;20178;-93
2022/02/22 02:14:12;;;;;;;26.20;3.67;;;4.90;99.90;;;;;;5038667;28;20182;-94
2022/02/22 02:16:38;;;;;;;31.40;4.53;;;4.90;99.90;;;;;;5037046;28;20185;-92
2022/02/22 02:19:04;;;;;;;19.00;4.03;;;4.80;99.90;;;;;;5056192;28;20173;-93
2022/02/22 02:21:31;;;;;;;23.63;3.90;;;4.70;99.90;;;;;;5056020;28;20636;-93
2022/02/22 02:24:12;;;;;;;27.03;5.47;;;4.70;99.90;;;;;;5037827;28;20213;-94
2022/02/22 02:26:39;;;;;;;32.10;4.90;;;4.60;99.90;;;;;;5038088;28;20184;-93
2022/02/22 02:29:16;;;;;;;31.20;4.60;;;4.60;99.90;;;;;;5038200;28;20174;-94
2022/02/22 02:31:44;;;;;;;20.70;3.30;;;4.50;99.90;;;;;;5055885;28;20257;-93
2022/02/22 02:34:12;;;;;;;22.93;4.43;;;4.50;99.90;;;;;;5037230;28;20185;-95
2022/02/22 02:36:39;;;;;;;21.07;3.73;;;4.40;99.90;;;;;;5037783;28;20181;-89
2022/02/22 02:39:07;;;;;;;30.40;4.17;;;4.40;99.90;;;;;;5037844;28;20608;-93
2022/02/22 02:41:33;;;;;;;29.60;3.97;;;4.40;99.90;;;;;;5037510;28;20226;-92
2022/02/22 02:44:09;;;;;;;21.03;4.30;;;4.40;99.90;;;;;;5037424;28;20177;-92
2022/02/22 02:46:36;;;;;;;21.37;3.73;;;4.30;99.90;;;;;;5037882;28;20186;-94
2022/02/22 02:49:02;;;;;;;28.70;4.67;;;4.30;99.90;;;;;;5037954;28;20182;-92
2022/02/22 02:51:28;;;;;;;27.93;4.87;;;4.30;99.90;;;;;;5037842;28;20641;-93
2022/02/22 02:53:54;;;;;;;23.73;4.10;;;4.40;99.90;;;;;;5037425;28;20190;-94
2022/02/22 02:56:22;;;;;;;27.20;4.83;;;4.50;99.90;;;;;;5037568;28;20185;-93
2022/02/22 02:58:59;;;;;;;29.77;4.43;;;4.50;99.90;;;;;;5037660;28;20274;-92
2022/02/22 03:01:27;;;;;;;24.77;3.77;;;4.50;99.90;;;;;;5037695;28;20215;-93
2022/02/22 03:03:53;;;;;;;29.40;4.13;;;4.60;99.90;;;;;;5048948;28;20178;-91
2022/02/22 03:06:19;;;;;;;18.70;3.93;;;4.60;99.90;;;;;;5017776;28;20640;-93
2022/02/22 03:08:45;;;;;;;24.17;3.97;;;4.50;99.90;;;;;;5017628;28;20179;-92
2022/02/22 03:11:11;;;;;;;32.03;4.90;;;4.50;99.90;;;;;;5006262;28;20186;-92
2022/02/22 03:13:38;;;;;;;23.07;4.00;;;4.50;99.90;;;;;;4998259;28;20264;-92
2022/02/22 03:16:04;;;;;;;25.60;3.77;;;4.50;99.90;;;;;;5006825;28;20186;-91
2022/02/22 03:18:30;;;;;;;18.83;3.93;;;4.50;99.90;;;;;;5017936;28;20177;-92
2022/02/22 03:20:55;;;;;;;19.50;3.63;;;4.50;99.90;;;;;;5017360;28;20202;-92
2022/02/22 03:23:21;;;;;;;21.20;4.03;;;4.40;99.90;;;;;;5017714;28;20186;-93
2022/02/22 03:25:49;;;;;;;20.63;3.40;;;4.30;99.90;;;;;;5035156;28;20226;-92
2022/02/22 03:28:15;;;;;;;27.60;4.47;;;4.30;99.90;;;;;;5035230;28;20194;-94
2022/02/22 03:30:40;;;;;;;31.53;4.97;;;4.30;99.90;;;;;;5017957;28;20281;-94
2022/02/22 03:33:08;;;;;;;21.53;4.23;;;4.30;99.90;;;;;;5017736;28;20605;-93
2022/02/22 03:35:35;;;;;;;18.67;3.63;;;4.20;99.90;;;;;;5017685;28;20196;-95
2022/02/22 03:38:01;;;;;;;23.27;3.40;;;4.20;99.90;;;;;;5017416;28;20183;-91
2022/02/22 03:40:27;;;;;;;20.33;3.40;;;4.20;99.90;;;;;;5017150;28;20209;-94
2022/02/22 03:42:52;;;;;;;25.70;3.37;;;4.10;99.90;;;;;;5017778;28;20187;-93
2022/02/22 03:45:18;;;;;;;12.83;3.10;;;4.20;99.90;;;;;;5021465;28;20592;-93
2022/02/22 03:47:44;;;;;;;21.80;3.77;;;4.20;99.90;;;;;;5054886;28;20186;-93
2022/02/22 03:50:12;;;;;;;18.10;3.80;;;4.10;99.90;;;;;;5037162;28;20268;-93
2022/02/22 03:52:38;;;;;;;18.13;3.60;;;4.10;99.90;;;;;;5036924;28;20187;-94
2022/02/22 03:55:05;;;;;;;19.77;3.20;;;4.00;99.90;;;;;;5038336;28;20216;-91
2022/02/22 03:57:32;;;;;;;17.03;3.37;;;4.00;99.90;;;;;;5041016;28;20668;-95
2022/02/22 03:59:57;;;;;;;20.47;3.43;;;4.00;99.90;;;;;;5040865;28;20182;-93
2022/02/22 04:02:23;;;;;;;22.30;4.43;;;4.00;99.90;;;;;;5041033;28;20182;-90
2022/02/22 04:04:49;;;;;;;17.67;3.43;;;4.00;99.90;;;;;;5040852;28;20185;-92
2022/02/22 04:07:15;;;;;;;29.47;4.13;;;3.90;99.90;;;;;;5040873;28;20231;-92
2022/02/22 04:09:43;;;;;;;22.00;3.53;;;3.90;99.90;;;;;;5040386;28;20170;-92
2022/02/22 04:12:10;;;;;;;26.10;3.80;;;3.80;99.90;;;;;;5040816;28;20178;-93
2022/02/22 04:14:36;;;;;;;21.63;4.33;;;3.80;99.90;;;;;;5040743;28;20265;-92
2022/02/22 04:17:03;;;;;;;27.40;4.73;;;3.90;99.90;;;;;;5040414;28;20186;-93
2022/02/22 04:19:29;;;;;;;23.93;4.20;;;3.90;99.90;;;;;;5040724;28;20216;-91
2022/02/22 04:21:55;;;;;;;23.73;4.63;;;3.90;99.90;;;;;;5058144;28;20233;-91
2022/02/22 04:24:20;;;;;;;23.50;5.10;;;3.80;99.90;;;;;;5057916;28;20233;-91
2022/02/22 04:26:47;;;;;;;23.37;4.40;;;3.70;99.90;;;;;;5040574;28;20188;-92
2022/02/22 04:29:13;;;;;;;19.60;4.53;;;3.80;99.90;;;;;;5040567;28;20181;-93
2022/02/22 04:31:39;;;;;;;29.10;5.43;;;3.80;99.90;;;;;;5040664;28;20186;-88
2022/02/22 04:34:06;;;;;;;28.80;4.50;;;4.00;99.90;;;;;;5040342;28;20184;-95
2022/02/22 04:36:33;;;;;;;25.40;4.10;;;4.00;99.90;;;;;;5036864;28;20279;-92
2022/02/22 04:38:59;;;;;;;22.47;4.30;;;4.00;99.90;;;;;;5020147;28;20171;-92
2022/02/22 04:41:25;;;;;;;20.80;3.77;;;4.00;99.90;;;;;;5020262;28;20248;-93
2022/02/22 04:43:51;;;;;;;22.90;4.23;;;4.00;99.90;;;;;;5020698;28;20527;-93
2022/02/22 04:46:17;;;;;;;23.13;3.53;;;4.00;99.90;;;;;;5019981;28;20708;-92
2022/02/22 04:48:43;;;;;;;34.07;4.80;;;3.90;99.90;;;;;;5020131;28;20285;-92
2022/02/22 04:51:09;;;;;;;22.77;4.23;;;3.90;99.90;;;;;;5037788;28;20198;-92
2022/02/22 04:53:34;;;;;;;22.53;3.87;;;3.90;99.90;;;;;;5036476;28;20182;-92
2022/02/22 04:56:00;;;;;;;27.37;4.40;;;3.80;99.90;;;;;;5037852;28;20178;-94
2022/02/22 04:58:26;;;;;;;28.83;4.23;;;3.90;99.90;;;;;;5020147;28;20228;-93
2022/02/22 05:00:52;;;;;;;18.30;3.23;;;3.90;99.90;;;;;;5019850;28;20243;-92
2022/02/22 05:03:18;;;;;;;29.03;4.07;;;4.00;99.90;;;;;;5019925;28;20189;-93
2022/02/22 05:05:44;;;;;;;20.87;4.10;;;4.00;99.90;;;;;;5019465;28;20186;-96
2022/02/22 05:08:09;;;;;;;26.93;3.53;;;4.00;99.90;;;;;;5036068;28;20256;-91
2022/02/22 05:10:35;;;;;;;20.80;3.60;;;4.10;99.90;;;;;;5020070;28;20193;-91
2022/02/22 05:13:02;;;;;;;27.37;3.67;;;4.00;99.90;;;;;;5036349;28;20225;-92
2022/02/22 05:15:32;;;;;;;21.97;3.50;;;4.10;99.90;;;;;;5043208;28;20185;-90
2022/02/22 05:17:58;;;;;;;25.27;4.43;;;4.10;99.90;;;;;;5039617;28;20221;-93
2022/02/22 05:20:24;;;;;;;17.50;4.13;;;4.10;99.90;;;;;;5039486;28;20206;-91
2022/02/22 05:22:49;;;;;;;25.37;3.83;;;4.10;99.90;;;;;;5039451;28;20503;-90
2022/02/22 05:25:15;;;;;;;31.57;6.10;;;4.10;99.90;;;;;;5039442;28;20229;-92
2022/02/22 05:27:42;;;;;;;25.50;4.87;;;4.10;99.90;;;;;;5039213;28;20182;-94
2022/02/22 05:30:09;;;;;;;22.80;3.73;;;4.20;99.90;;;;;;5039206;28;20196;-95
2022/02/22 05:32:35;;;;;;;20.80;3.83;;;4.10;99.90;;;;;;5040540;28;20192;-95
2022/02/22 05:35:02;;;;;;;27.83;4.33;;;3.80;99.90;;;;;;5039687;28;20596;-94
2022/02/22 05:37:30;;;;;;;20.57;3.43;;;3.50;99.90;;;;;;5038163;28;20192;-93
2022/02/22 05:39:56;;;;;;;28.10;4.20;;;3.30;99.90;;;;;;5005155;28;20183;-93
2022/02/22 05:42:23;;;;;;;16.57;3.60;;;3.20;99.90;;;;;;5036928;28;20273;-93
2022/02/22 05:44:49;;;;;;;27.77;3.97;;;3.10;99.90;;;;;;5019165;28;20508;-95
2022/02/22 05:47:15;;;;;;;22.23;4.83;;;3.00;99.90;;;;;;5018816;28;20273;-93
2022/02/22 05:49:41;;;;;;;28.97;4.80;;;3.10;99.90;;;;;;5019502;28;20270;-93
2022/02/22 05:52:07;;;;;;;30.80;4.80;;;3.20;99.90;;;;;;5019472;28;20217;-94
2022/02/22 05:54:33;;;;;;;30.47;5.07;;;3.30;99.90;;;;;;5019191;28;20186;-95
2022/02/22 05:56:59;;;;;;;25.37;4.77;;;3.30;99.90;;;;;;5036811;28;20171;-93
2022/02/22 05:59:25;;;;;;;24.77;4.37;;;3.40;99.90;;;;;;5036137;28;20202;-95
2022/02/22 06:01:50;;;;;;;25.13;5.07;;;3.30;99.90;;;;;;5036913;28;20241;-93
2022/02/22 06:04:16;;;;;;;22.37;4.40;;;3.40;99.90;;;;;;5019243;28;20201;-94
2022/02/22 06:06:42;;;;;;;24.90;5.50;;;3.40;99.90;;;;;;5018746;28;20523;-95
2022/02/22 06:09:12;;;;;;;36.27;5.30;;;3.30;99.90;;;;;;5008811;28;20187;-93
2022/02/22 06:11:38;;;;;;;30.07;4.83;;;3.20;99.90;;;;;;5017244;28;20160;-93
2022/02/22 06:14:05;;;;;;;24.80;4.27;;;3.20;99.90;;;;;;5036582;28;20193;-93
2022/02/22 06:16:31;;;;;;;36.97;5.07;;;3.20;99.90;;;;;;5033454;28;20186;-92
2022/02/22 06:18:56;;;;;;;37.73;5.53;;;3.20;99.90;;;;;;5037885;28;20527;-94
2022/02/22 06:21:23;;;;;;;29.47;4.93;;;3.20;99.90;;;;;;5038408;28;20209;-93
2022/02/22 06:23:49;;;;;;;25.03;5.00;;;3.20;99.90;;;;;;5038030;28;20659;-94
2022/02/22 06:26:14;;;;;;;26.97;4.40;;;3.30;99.90;;;;;;5039448;28;20197;-91
2022/02/22 06:28:40;;;;;;;31.03;4.53;;;3.40;99.90;;;;;;5030834;28;20211;-93
2022/02/22 06:31:09;;;;;;;32.50;4.43;;;3.30;99.90;;;;;;5006947;28;20186;-90
2022/02/22 06:33:34;;;;;;;25.57;4.63;;;3.40;99.90;;;;;;5018704;28;20218;-94
2022/02/22 06:36:00;;;;;;;29.47;4.50;;;3.30;99.90;;;;;;5013936;28;20597;-90
2022/02/22 06:38:26;;;;;;;26.30;4.43;;;3.40;99.90;;;;;;5021747;28;20218;-96
2022/02/22 06:40:52;;;;;;;27.80;4.73;;;3.50;99.90;;;;;;5019326;28;20206;-90
2022/02/22 06:43:18;;;;;;;24.73;4.53;;;3.60;99.90;;;;;;5036063;28;20241;-93
2022/02/22 06:45:44;;;;;;;30.53;4.97;;;3.60;99.90;;;;;;5027856;28;20189;-88
2022/02/22 06:48:11;;;;;;;32.07;5.30;;;3.70;99.90;;;;;;5040195;28;20185;-90
2022/02/22 06:50:37;;;;;;;22.50;4.03;;;3.60;99.90;;;;;;5016668;28;20186;-93
2022/02/22 06:53:03;;;;;;;23.30;4.23;;;3.70;99.90;;;;;;5017706;28;20186;-91
2022/02/22 06:55:29;;;;;;;20.00;4.27;;;3.80;99.90;;;;;;5018087;28;20655;-94
2022/02/22 06:58:08;;;;;;;30.60;4.77;;;3.80;99.90;;;;;;5035376;28;20179;-96
2022/02/22 07:00:36;;;;;;;29.07;5.27;;;3.80;99.90;;;;;;5017760;28;20814;-92
2022/02/22 07:03:03;;;;;;;24.50;3.93;;;3.90;99.90;;;;;;5017555;28;20183;-90
2022/02/22 07:05:30;;;;;;;31.53;4.80;;;3.90;99.90;;;;;;5024134;28;20210;-86
2022/02/22 07:07:57;;;;;;;24.93;4.07;;;3.90;99.90;;;;;;5025390;28;20193;-87
2022/02/22 07:10:24;;;;;;;19.17;3.97;;;3.90;99.90;;;;;;5007603;28;20957;-89
2022/02/22 07:12:50;;;;;;;26.37;4.67;;;3.80;99.90;;;;;;5023119;28;20179;-92
2022/02/22 07:15:16;;;;;;;23.10;4.10;;;3.90;99.90;;;;;;5017948;28;20516;-94
2022/02/22 07:17:46;;;;;;;29.30;4.30;;;4.10;99.90;;;;;;5035378;28;20181;-92
2022/02/22 07:20:14;;;;;;;25.13;5.20;;;4.00;99.90;;;;;;5017688;28;20182;-94
2022/02/22 07:29:14;;;;;;;22.43;4.10;;;4.20;99.90;;;;;;4625722;28;20274;-87
2022/02/22 07:31:39;;;;;;;27.90;4.93;;;4.20;99.90;;;;;;4938962;29;20280;-88
2022/02/22 07:34:05;;;;;;;31.00;5.70;;;4.30;99.90;;;;;;4939115;29;20178;-88
2022/02/22 07:36:31;;;;;;;27.97;4.73;;;4.30;99.90;;;;;;4956344;29;20263;-87
2022/02/22 07:38:56;;;;;;;29.13;4.67;;;4.30;99.90;;;;;;4939362;29;20611;-88
2022/02/22 07:41:22;;;;;;;25.30;4.53;;;4.20;99.90;;;;;;4954795;29;20651;-88
2022/02/22 07:43:51;;;;;;;28.47;4.27;;;4.20;99.90;;;;;;4939097;29;20184;-88
2022/02/22 07:46:18;;;;;;;27.33;4.30;;;4.20;99.90;;;;;;4947879;28;20211;-87
2022/02/22 07:48:47;;;;;;;30.33;4.50;;;4.10;99.90;;;;;;4957613;28;20569;-86
2022/02/22 07:51:16;;;;;;;32.60;4.70;;;4.10;99.90;;;;;;4957894;28;20686;-86
2022/02/22 07:53:46;;;;;;;31.40;4.93;;;4.20;99.90;;;;;;4957383;28;20208;-87
2022/02/22 07:56:12;;;;;;;26.63;4.13;;;4.20;99.90;;;;;;4950022;28;20176;-85
2022/02/22 07:58:38;;;;;;;29.57;4.60;;;4.20;99.90;;;;;;4957370;28;20615;-86
2022/02/22 08:01:05;;;;;;;31.07;4.40;;;4.20;99.90;;;;;;4957877;28;20239;-85
2022/02/22 08:03:31;;;;;;;28.20;5.23;;;4.20;99.90;;;;;;4975389;28;20219;-87
2022/02/22 08:05:57;;;;;;;35.17;4.83;;;4.30;99.90;;;;;;4957885;28;20620;-85
2022/02/22 08:08:22;;;;;;;30.90;4.97;;;4.30;99.90;;;;;;4957498;28;20180;-86
2022/02/22 08:10:48;;;;;;;32.57;4.77;;;4.40;99.90;;;;;;4975302;28;20184;-84
2022/02/22 08:13:14;;;;;;;33.13;5.50;;;4.50;99.90;;;;;;4957788;28;20185;-85
2022/02/22 08:15:40;;;;;;;33.97;5.27;;;4.40;99.90;;;;;;4966442;28;20293;-85
2022/02/22 08:18:05;;;;;;;28.00;4.87;;;4.50;99.90;;;;;;4938770;29;20182;-85
2022/02/22 08:20:31;;;;;;;27.80;5.57;;;4.50;99.90;;;;;;4938614;29;20652;-85
2022/02/22 08:22:57;;;;;;;36.13;5.77;;;4.40;99.90;;;;;;4954720;29;20185;-84
2022/02/22 08:25:23;;;;;;;28.00;5.20;;;4.50;99.90;;;;;;4953206;28;20192;-84
2022/02/22 08:27:49;;;;;;;32.73;5.10;;;4.40;99.90;;;;;;4974432;28;20270;-84
2022/02/22 08:30:14;;;;;;;22.57;4.33;;;4.40;99.90;;;;;;4957836;28;20173;-85
2022/02/22 08:32:40;;;;;;;35.23;6.17;;;4.40;99.90;;;;;;4975085;28;20623;-86
2022/02/22 08:35:06;;;;;;;31.23;5.73;;;4.50;99.90;;;;;;4974947;28;20635;-89
2022/02/22 08:37:32;;;;;;;30.70;5.63;;;4.50;99.90;;;;;;4975440;28;20659;-88
2022/02/22 08:39:58;;;;;;;27.53;4.30;;;4.50;99.90;;;;;;4975069;28;20216;-88
2022/02/22 08:42:24;;;;;;;32.17;4.60;;;4.50;99.90;;;;;;4976925;28;20220;-88
2022/02/22 08:44:49;;;;;;;34.30;6.07;;;4.50;99.90;;;;;;4960535;28;20181;-88
2022/02/22 08:47:15;;;;;;;25.57;4.70;;;4.50;99.90;;;;;;4959975;29;20181;-88
2022/02/22 08:49:42;;;;;;;26.77;4.43;;;4.50;99.90;;;;;;4973356;28;20489;-86
2022/02/22 08:52:07;;;;;;;30.70;4.93;;;4.60;99.90;;;;;;4958927;29;20161;-85
2022/02/22 08:54:33;;;;;;;28.57;4.97;;;4.90;99.90;;;;;;4973625;28;20189;-85
2022/02/22 08:56:59;;;;;;;25.93;4.57;;;4.90;99.90;;;;;;4973745;28;20189;-85
2022/02/22 08:59:25;;;;;;;26.13;4.20;;;4.90;99.90;;;;;;4975682;28;20180;-87
2022/02/22 09:01:51;;;;;;;34.13;5.43;;;5.00;99.90;;;;;;4961034;28;20204;-88
2022/02/22 09:04:17;;;;;;;34.57;4.70;;;5.20;99.90;;;;;;4978359;28;20180;-88
2022/02/22 09:06:42;;;;;;;27.77;4.57;;;5.20;99.90;;;;;;4976703;28;20200;-86
2022/02/22 09:09:08;;;;;;;33.03;5.27;;;5.40;99.90;;;;;;4978016;28;20169;-86
2022/02/22 09:11:34;;;;;;;24.00;4.30;;;5.50;99.90;;;;;;4976689;28;20176;-87
2022/02/22 09:13:59;;;;;;;28.50;5.07;;;5.50;99.90;;;;;;4978012;28;20165;-86
2022/02/22 09:16:25;;;;;;;32.53;5.00;;;5.50;99.90;;;;;;4946254;29;20189;-86
2022/02/22 09:18:50;;;;;;;20.23;3.87;;;5.60;99.90;;;;;;4958156;29;20184;-86
2022/02/22 09:21:16;;;;;;;27.83;4.80;;;5.70;99.90;;;;;;4943468;28;20666;-85
2022/02/22 09:23:42;;;;;;;26.17;5.17;;;5.70;99.90;;;;;;4976373;28;20203;-86
2022/02/22 09:26:07;;;;;;;27.33;3.70;;;5.80;99.90;;;;;;4960225;28;20498;-85
2022/02/22 09:28:33;;;;;;;25.93;5.03;;;5.90;99.90;;;;;;4940038;29;20287;-84
2022/02/22 09:30:59;;;;;;;31.93;4.67;;;5.90;99.90;;;;;;4957872;29;20525;-84
2022/02/22 09:33:25;;;;;;;25.10;5.03;;;6.00;99.90;;;;;;4940185;29;20711;-86
2022/02/22 09:35:50;;;;;;;26.90;4.47;;;6.00;99.90;;;;;;4956717;29;20177;-86
2022/02/22 09:38:16;;;;;;;22.83;4.37;;;5.90;99.90;;;;;;4957692;29;20521;-86
2022/02/22 09:40:42;;;;;;;29.27;4.37;;;5.80;99.90;;;;;;4940476;28;20228;-86
2022/02/22 09:43:07;;;;;;;18.07;3.53;;;5.80;99.90;;;;;;4938900;29;20174;-86
2022/02/22 09:45:33;;;;;;;34.00;5.43;;;6.00;99.90;;;;;;4937493;29;20182;-86
2022/02/22 09:48:04;;;;;;;26.73;4.53;;;6.10;99.90;;;;;;4937439;29;20189;-86
2022/02/22 09:50:31;;;;;;;29.90;4.73;;;6.10;99.90;;;;;;4937335;29;20178;-85
2022/02/22 09:52:57;;;;;;;27.73;5.33;;;6.10;99.90;;;;;;4962113;28;20177;-84
2022/02/22 09:55:23;;;;;;;27.27;4.63;;;6.10;99.90;;;;;;4958900;28;20207;-86
2022/02/22 09:57:51;;;;;;;26.30;4.50;;;6.20;99.90;;;;;;4970870;28;20192;-85
2022/02/22 10:00:21;;;;;;;30.37;4.77;;;6.30;99.90;;;;;;4959092;28;20193;-85
2022/02/22 10:02:47;;;;;;;33.47;4.87;;;6.40;99.90;;;;;;4958483;28;20266;-84
2022/02/22 10:05:21;;;;;;;25.60;3.93;;;6.40;99.90;;;;;;4959297;28;20176;-83
2022/02/22 10:07:57;;;;;;;20.17;3.87;;;6.30;99.90;;;;;;4959590;28;20254;-85
2022/02/22 10:10:36;;;;;;;32.80;4.97;;;6.40;99.90;;;;;;4961050;28;20499;-84
2022/02/22 10:13:04;;;;;;;22.07;4.47;;;6.50;99.90;;;;;;4940401;29;20573;-85
2022/02/22 10:15:38;;;;;;;23.70;4.80;;;6.60;99.90;;;;;;4939044;29;20177;-84
2022/02/22 10:18:03;;;;;;;22.80;4.13;;;6.70;99.90;;;;;;4940134;29;20212;-85
2022/02/22 10:20:29;;;;;;;22.50;4.33;;;6.60;99.90;;;;;;4957202;29;20624;-84
2022/02/22 10:22:57;;;;;;;28.23;5.13;;;6.70;99.90;;;;;;4940264;29;20236;-85
2022/02/22 10:25:25;;;;;;;24.60;4.13;;;6.60;99.90;;;;;;4957078;29;20255;-84
2022/02/22 10:27:58;;;;;;;25.53;4.10;;;6.60;99.90;;;;;;4956121;29;20248;-87
2022/02/22 10:30:31;;;;;;;33.40;4.90;;;6.60;99.90;;;;;;4956041;29;20208;-85
2022/02/22 10:32:59;;;;;;;28.83;4.47;;;6.70;99.90;;;;;;4940001;29;20240;-85
2022/02/22 10:35:33;;;;;;;27.10;4.70;;;6.70;99.90;;;;;;4958120;28;20204;-84
2022/02/22 10:38:10;;;;;;;23.63;4.77;;;6.70;99.90;;;;;;4955850;29;20279;-85
2022/02/22 10:40:36;;;;;;;20.20;4.43;;;6.90;99.90;;;;;;4956645;28;20196;-84
2022/02/22 10:43:01;;;;;;;26.03;4.67;;;7.20;99.90;;;;;;4955845;29;20566;-85
2022/02/22 10:45:27;;;;;;;22.97;4.13;;;7.10;99.90;;;;;;4953164;29;20189;-84
2022/02/22 10:47:55;;;;;;;21.07;4.37;;;6.90;99.90;;;;;;4956952;29;20177;-85
2022/02/22 10:50:31;;;;;;;23.27;4.27;;;6.70;99.90;;;;;;4957116;28;20627;-86
2022/02/22 10:52:57;;;;;;;24.50;4.00;;;6.60;99.90;;;;;;4956620;28;20217;-83
2022/02/22 10:55:23;;;;;;;19.77;3.53;;;6.70;99.90;;;;;;4952031;29;20174;-86
2022/02/22 10:57:49;;;;;;;17.73;3.27;;;6.70;99.90;;;;;;4937317;29;20232;-85
2022/02/22 11:00:17;;;;;;;24.73;3.93;;;6.80;99.90;;;;;;4944550;28;20219;-84
2022/02/22 11:02:45;;;;;;;25.33;4.07;;;7.00;99.90;;;;;;4938743;29;20529;-83
2022/02/22 11:05:12;;;;;;;17.73;3.40;;;7.00;99.90;;;;;;4955576;28;20212;-84
2022/02/22 11:07:38;;;;;;;19.90;3.40;;;7.10;99.90;;;;;;4956312;29;20177;-84
2022/02/22 11:10:07;;;;;;;19.63;3.33;;;7.20;99.90;;;;;;4955007;29;20203;-85
2022/02/22 11:12:38;;;;;;;16.10;3.20;;;7.20;99.90;;;;;;4957615;28;20619;-85
2022/02/22 11:15:09;;;;;;;28.27;3.83;;;7.30;99.90;;;;;;4975472;28;20176;-85
2022/02/22 11:17:51;;;;;;;18.87;3.23;;;7.40;99.90;;;;;;4975661;28;20180;-84
2022/02/22 11:20:31;;;;;;;21.53;4.03;;;7.50;99.90;;;;;;4975417;28;20196;-83
2022/02/22 11:22:59;;;;;;;19.93;3.23;;;7.50;99.90;;;;;;4958097;28;20181;-85
2022/02/22 11:25:33;;;;;;;20.70;3.30;;;7.60;99.90;;;;;;4958017;28;20213;-84
2022/02/22 11:28:07;;;;;;;18.10;3.83;;;7.50;99.90;;;;;;4973946;28;20753;-84
2022/02/22 11:30:34;;;;;;;17.50;2.97;;;7.60;99.90;;;;;;4963947;28;20280;-87
2022/02/22 11:33:06;;;;;;;15.37;3.07;;;7.90;99.90;;;;;;4947051;28;20228;-83
2022/02/22 11:35:45;;;;;;;21.33;3.60;;;8.00;99.90;;;;;;4964775;28;20175;-83
2022/02/22 11:38:11;;;;;;;13.43;3.70;;;8.00;99.90;;;;;;4954879;28;20502;-83
2022/02/22 11:40:37;;;;;;;24.63;4.33;;;7.90;99.90;;;;;;4957667;28;20253;-85
2022/02/22 11:43:17;;;;;;;18.20;3.53;;;7.80;99.90;;;;;;4975226;28;20230;-85
2022/02/22 11:45:50;;;;;;;18.70;3.60;;;7.80;99.90;;;;;;4954690;28;20615;-86
2022/02/22 11:48:34;;;;;;;16.37;3.17;;;7.70;99.90;;;;;;4948937;28;20619;-85
2022/02/22 11:51:08;;;;;;;19.80;3.17;;;7.60;99.90;;;;;;4972565;28;20160;-83
2022/02/22 11:53:36;;;;;;;19.67;3.77;;;7.40;99.90;;;;;;4948334;29;20176;-84
2022/02/22 11:56:02;;;;;;;18.80;3.47;;;7.30;99.90;;;;;;4959961;28;20180;-83
2022/02/22 11:58:32;;;;;;;15.03;3.20;;;7.30;99.90;;;;;;4967043;28;20188;-83
2022/02/22 12:01:06;;;;;;;17.87;3.20;;;7.40;99.90;;;;;;4965502;28;20213;-84
2022/02/22 12:03:43;;;;;;;19.77;3.90;;;7.60;99.90;;;;;;4952521;28;20488;-84
2022/02/22 12:06:09;;;;;;;20.93;3.50;;;7.50;99.90;;;;;;4951185;28;20604;-83
2022/02/22 12:08:40;;;;;;;18.10;3.43;;;7.40;99.90;;;;;;4964598;28;20176;-85
2022/02/22 12:11:14;;;;;;;22.17;3.20;;;7.40;99.90;;;;;;4962146;28;20165;-85
2022/02/22 12:13:41;;;;;;;25.30;3.97;;;7.40;99.90;;;;;;4954767;28;20236;-85
2022/02/22 12:16:30;;;;;;;20.03;3.70;;;7.40;99.90;;;;;;4966553;28;20196;-84
2022/02/22 12:19:00;;;;;;;19.63;3.43;;;7.40;99.90;;;;;;4969208;28;20178;-84
2022/02/22 12:21:27;;;;;;;18.23;3.53;;;7.30;99.90;;;;;;4964450;28;20271;-85
2022/02/22 12:23:54;;;;;;;20.30;3.57;;;7.30;99.90;;;;;;4959568;28;20177;-84
2022/02/22 12:26:23;;;;;;;23.13;3.60;;;7.40;99.90;;;;;;4958377;28;20233;-85
2022/02/22 12:28:55;;;;;;;22.17;3.90;;;7.30;99.90;;;;;;4963592;28;20228;-85
2022/02/22 12:31:42;;;;;;;20.77;3.40;;;7.30;99.90;;;;;;4957768;29;20178;-85
2022/02/22 12:34:14;;;;;;;13.27;2.70;;;7.30;99.90;;;;;;4967775;28;20307;-85
2022/02/22 12:36:44;;;;;;;14.20;2.87;;;7.40;99.90;;;;;;4971781;28;20703;-85
2022/02/22 12:39:13;;;;;;;17.50;2.93;;;7.30;99.90;;;;;;4974257;28;20231;-85
2022/02/22 12:41:40;;;;;;;18.37;2.77;;;7.20;99.90;;;;;;4974041;28;20599;-86
2022/02/22 12:44:13;;;;;;;15.67;2.60;;;7.20;99.90;;;;;;4957862;29;20184;-85
2022/02/22 12:46:40;;;;;;;16.10;2.90;;;7.20;99.90;;;;;;4957519;29;20196;-86
2022/02/22 12:49:08;;;;;;;14.30;3.07;;;7.20;99.90;;;;;;4941988;29;20500;-83
2022/02/22 12:51:34;;;;;;;12.67;2.80;;;7.20;99.90;;;;;;4961708;28;20191;-86
2022/02/22 12:54:08;;;;;;;15.63;3.53;;;7.30;99.90;;;;;;4960975;28;20637;-86
2022/02/22 12:56:48;;;;;;;15.13;3.33;;;7.30;99.90;;;;;;4961038;28;20180;-85
2022/02/22 12:59:21;;;;;;;14.77;3.23;;;7.40;99.90;;;;;;4957597;29;20235;-85